createdAt,value
2022-09-28T00:00:49.331Z,10.34
2022-09-28T00:01:49.444Z,10.33
2022-09-28T00:02:49.374Z,10.34
2022-09-28T00:03:49.285Z,10.36
2022-09-28T00:04:49.269Z,10.32
2022-09-28T00:05:49.279Z,10.36
2022-09-28T00:06:49.259Z,10.34
2022-09-28T00:07:49.261Z,10.33
2022-09-28T00:08:49.232Z,10.32
2022-09-28T00:09:49.223Z,10.30
2022-09-28T00:10:49.229Z,10.32
2022-09-28T00:11:49.234Z,10.32
2022-09-28T00:12:49.188Z,10.26
2022-09-28T00:13:49.189Z,10.27
2022-09-28T00:14:49.178Z,10.29
2022-09-28T00:15:49.180Z,10.29
2022-09-28T00:16:49.193Z,10.27
2022-09-28T00:17:49.131Z,10.27
2022-09-28T00:18:49.127Z,10.26
2022-09-28T00:19:49.113Z,10.29
2022-09-28T00:20:49.103Z,10.29
2022-09-28T00:21:49.120Z,10.27
2022-09-28T00:22:49.082Z,10.30
2022-09-28T00:23:49.072Z,10.33
2022-09-28T00:24:49.063Z,10.30
2022-09-28T00:25:49.061Z,10.30
2022-09-28T00:26:49.043Z,10.27
2022-09-28T00:27:49.054Z,10.29
2022-09-28T00:28:49.013Z,10.29
2022-09-28T00:29:49.019Z,10.29
2022-09-28T00:30:49.019Z,10.26
2022-09-28T00:31:49.013Z,10.27
2022-09-28T00:32:48.980Z,10.27
2022-09-28T00:33:48.973Z,10.30
2022-09-28T00:34:48.966Z,10.23
2022-09-28T00:35:48.980Z,10.22
2022-09-28T00:36:48.935Z,10.25
2022-09-28T00:37:48.925Z,10.17
2022-09-28T00:38:48.924Z,10.18
2022-09-28T00:39:48.895Z,10.15
2022-09-28T00:40:48.968Z,10.12
2022-09-28T00:41:48.886Z,10.15
2022-09-28T00:42:48.874Z,10.15
2022-09-28T00:43:48.855Z,10.15
2022-09-28T00:44:48.868Z,10.14
2022-09-28T00:45:48.891Z,10.14
2022-09-28T00:46:48.832Z,10.11
2022-09-28T00:47:48.824Z,10.08
2022-09-28T00:48:48.817Z,10.08
2022-09-28T00:49:48.788Z,10.08
2022-09-28T00:50:48.788Z,10.05
2022-09-28T00:51:48.767Z,10.09
2022-09-28T00:52:48.782Z,10.09
2022-09-28T00:53:48.767Z,10.07
2022-09-28T00:54:48.751Z,10.07
2022-09-28T00:55:48.802Z,10.07
2022-09-28T00:56:48.730Z,10.04
2022-09-28T00:57:48.710Z,10.05
2022-09-28T00:58:48.727Z,10.05
2022-09-28T00:59:48.688Z,10.09
2022-09-28T01:00:48.717Z,10.12
2022-09-28T01:01:48.733Z,10.14
2022-09-28T01:02:48.649Z,10.17
2022-09-28T01:03:48.647Z,10.18
2022-09-28T01:04:48.650Z,10.22
2022-09-28T01:05:48.624Z,10.26
2022-09-28T01:06:48.625Z,10.23
2022-09-28T01:07:48.599Z,10.27
2022-09-28T01:08:48.582Z,10.26
2022-09-28T01:09:48.587Z,10.26
2022-09-28T01:10:48.702Z,10.26
2022-09-28T01:11:48.564Z,10.29
2022-09-28T01:12:48.584Z,10.29
2022-09-28T01:13:48.540Z,10.26
2022-09-28T01:14:48.538Z,10.30
2022-09-28T01:15:48.539Z,10.27
2022-09-28T01:16:48.552Z,10.27
2022-09-28T01:17:48.491Z,10.30
2022-09-28T01:18:48.481Z,10.29
2022-09-28T01:19:48.470Z,10.27
2022-09-28T01:20:48.457Z,10.30
2022-09-28T01:21:48.477Z,10.30
2022-09-28T01:22:48.442Z,10.30
2022-09-28T01:23:48.421Z,10.30
2022-09-28T01:24:48.427Z,10.30
2022-09-28T01:25:48.408Z,10.29
2022-09-28T01:26:48.432Z,10.29
2022-09-28T01:27:48.403Z,10.25
2022-09-28T01:28:48.372Z,10.22
2022-09-28T01:29:48.376Z,10.20
2022-09-28T01:30:48.355Z,10.18
2022-09-28T01:31:48.441Z,10.20
2022-09-28T01:32:48.353Z,10.22
2022-09-28T01:33:48.329Z,10.22
2022-09-28T01:34:48.315Z,10.25
2022-09-28T01:35:48.313Z,10.23
2022-09-28T01:36:48.288Z,10.26
2022-09-28T01:37:48.305Z,10.26
2022-09-28T01:38:48.287Z,10.29
2022-09-28T01:39:48.255Z,10.29
2022-09-28T01:40:48.303Z,10.33
2022-09-28T01:41:48.237Z,10.36
2022-09-28T01:42:48.225Z,10.32
2022-09-28T01:43:48.236Z,10.29
2022-09-28T01:44:48.206Z,10.27
2022-09-28T01:45:48.269Z,10.27
2022-09-28T01:46:48.199Z,10.23
2022-09-28T01:47:48.184Z,10.20
2022-09-28T01:48:48.157Z,10.20
2022-09-28T01:49:48.159Z,10.23
2022-09-28T01:50:48.143Z,10.20
2022-09-28T01:51:48.150Z,10.23
2022-09-28T01:52:48.149Z,10.27
2022-09-28T01:53:48.111Z,10.27
2022-09-28T01:54:48.087Z,10.27
2022-09-28T01:55:48.104Z,10.32
2022-09-28T01:56:48.085Z,10.27
2022-09-28T01:57:48.087Z,10.32
2022-09-28T01:58:48.057Z,10.30
2022-09-28T01:59:48.047Z,10.32
2022-09-28T02:00:48.106Z,10.32
2022-09-28T02:01:48.096Z,10.33
2022-09-28T02:02:48.011Z,10.29
2022-09-28T02:03:48.009Z,10.26
2022-09-28T02:04:47.989Z,10.29
2022-09-28T02:05:47.991Z,10.27
2022-09-28T02:06:47.991Z,10.30
2022-09-28T02:07:47.959Z,10.29
2022-09-28T02:08:47.957Z,10.30
2022-09-28T02:09:47.940Z,10.27
2022-09-28T02:10:47.933Z,10.32
2022-09-28T02:11:47.920Z,10.33
2022-09-28T02:12:47.934Z,10.33
2022-09-28T02:13:47.889Z,10.33
2022-09-28T02:14:47.892Z,10.30
2022-09-28T02:15:47.901Z,10.32
2022-09-28T02:16:47.932Z,10.33
2022-09-28T02:17:47.852Z,10.33
2022-09-28T02:18:47.830Z,10.26
2022-09-28T02:19:47.871Z,10.30
2022-09-28T02:20:47.822Z,10.32
2022-09-28T02:21:47.832Z,10.29
2022-09-28T02:22:47.803Z,10.26
2022-09-28T02:23:47.793Z,10.27
2022-09-28T02:24:47.803Z,10.27
2022-09-28T02:25:47.763Z,10.26
2022-09-28T02:26:47.753Z,10.22
2022-09-28T02:27:47.754Z,10.22
2022-09-28T02:28:47.736Z,10.17
2022-09-28T02:29:47.741Z,10.20
2022-09-28T02:30:47.712Z,10.20
2022-09-28T02:31:47.779Z,10.20
2022-09-28T02:32:47.693Z,10.23
2022-09-28T02:33:47.673Z,10.22
2022-09-28T02:34:47.705Z,10.25
2022-09-28T02:35:47.655Z,10.23
2022-09-28T02:36:47.657Z,10.22
2022-09-28T02:37:47.636Z,10.22
2022-09-28T02:38:47.626Z,10.18
2022-09-28T02:39:47.626Z,10.22
2022-09-28T02:40:47.674Z,10.18
2022-09-28T02:41:47.593Z,10.22
2022-09-28T02:42:47.587Z,10.18
2022-09-28T02:43:47.575Z,10.20
2022-09-28T02:44:47.587Z,10.17
2022-09-28T02:45:47.601Z,10.17
2022-09-28T02:46:47.547Z,10.15
2022-09-28T02:47:47.527Z,10.15
2022-09-28T02:49:00.048Z,10.15
2022-09-28T02:49:48.535Z,10.12
2022-09-28T02:50:47.522Z,10.12
2022-09-28T02:51:47.487Z,10.09
2022-09-28T02:52:47.474Z,10.08
2022-09-28T02:53:47.472Z,10.08
2022-09-28T02:54:47.478Z,10.05
2022-09-28T02:55:47.457Z,10.07
2022-09-28T02:56:47.439Z,9.99
2022-09-28T02:57:47.437Z,10.02
2022-09-28T02:58:47.448Z,9.97
2022-09-28T02:59:47.410Z,9.97
2022-09-28T03:00:47.519Z,9.99
2022-09-28T03:01:47.424Z,10.04
2022-09-28T03:02:47.368Z,10.01
2022-09-28T03:03:47.363Z,10.01
2022-09-28T03:04:47.441Z,10.05
2022-09-28T03:05:47.356Z,10.02
2022-09-28T03:06:47.320Z,10.04
2022-09-28T03:07:47.324Z,10.04
2022-09-28T03:08:47.311Z,10.05
2022-09-28T03:09:47.323Z,10.05
2022-09-28T03:10:47.289Z,10.04
2022-09-28T03:11:47.295Z,10.01
2022-09-28T03:12:47.276Z,10.01
2022-09-28T03:13:47.263Z,10.01
2022-09-28T03:14:47.262Z,9.96
2022-09-28T03:15:49.031Z,9.99
2022-09-28T03:16:47.255Z,9.97
2022-09-28T03:17:47.212Z,9.96
2022-09-28T03:18:47.201Z,9.94
2022-09-28T03:19:47.211Z,9.94
2022-09-28T03:20:47.158Z,9.93
2022-09-28T03:21:47.173Z,9.91
2022-09-28T03:23:06.057Z,9.89
2022-09-28T03:23:48.153Z,9.91
2022-09-28T03:24:47.161Z,9.91
2022-09-28T03:25:47.125Z,9.91
2022-09-28T03:26:47.133Z,9.91
2022-09-28T03:27:47.117Z,9.93
2022-09-28T03:28:47.094Z,9.91
2022-09-28T03:29:47.085Z,9.90
2022-09-28T03:30:47.109Z,9.91
2022-09-28T03:31:47.099Z,9.87
2022-09-28T03:32:47.065Z,9.89
2022-09-28T03:33:47.056Z,9.84
2022-09-28T03:34:47.033Z,9.84
2022-09-28T03:35:47.046Z,9.86
2022-09-28T03:36:47.014Z,9.84
2022-09-28T03:37:47.005Z,9.84
2022-09-28T03:38:46.986Z,9.79
2022-09-28T03:39:46.977Z,9.83
2022-09-28T03:40:47.028Z,9.79
2022-09-28T03:41:46.966Z,9.83
2022-09-28T03:42:46.947Z,9.79
2022-09-28T03:43:46.935Z,9.76
2022-09-28T03:44:46.917Z,9.75
2022-09-28T03:45:46.947Z,9.76
2022-09-28T03:46:46.917Z,9.71
2022-09-28T03:47:46.897Z,9.68
2022-09-28T03:48:46.874Z,9.68
2022-09-28T03:49:46.868Z,9.60
2022-09-28T03:50:46.857Z,9.60
2022-09-28T03:51:46.846Z,9.60
2022-09-28T03:52:46.852Z,9.57
2022-09-28T03:53:46.818Z,9.54
2022-09-28T03:54:49.196Z,9.56
2022-09-28T03:55:46.809Z,9.53
2022-09-28T03:56:46.808Z,9.51
2022-09-28T03:57:46.784Z,9.51
2022-09-28T03:58:46.778Z,9.50
2022-09-28T03:59:46.757Z,9.48
2022-09-28T04:00:46.791Z,9.42
2022-09-28T04:01:46.793Z,9.39
2022-09-28T04:02:46.744Z,9.36
2022-09-28T04:03:46.718Z,9.32
2022-09-28T04:04:46.715Z,9.31
2022-09-28T04:05:46.688Z,9.29
2022-09-28T04:06:46.705Z,9.29
2022-09-28T04:07:46.691Z,9.28
2022-09-28T04:08:46.698Z,9.26
2022-09-28T04:09:46.660Z,9.26
2022-09-28T04:10:46.745Z,9.26
2022-09-28T04:12:02.837Z,9.26
2022-09-28T04:12:47.643Z,9.26
2022-09-28T04:13:46.619Z,9.24
2022-09-28T04:14:46.600Z,9.24
2022-09-28T04:15:46.629Z,9.23
2022-09-28T04:16:46.605Z,9.23
2022-09-28T04:17:46.593Z,9.21
2022-09-28T04:18:46.552Z,9.23
2022-09-28T04:19:46.562Z,9.23
2022-09-28T04:20:46.550Z,9.18
2022-09-28T04:21:46.535Z,9.20
2022-09-28T04:22:46.543Z,9.20
2022-09-28T04:23:46.455Z,9.18
2022-09-28T04:24:46.512Z,9.18
2022-09-28T04:25:46.451Z,9.20
2022-09-28T04:26:46.423Z,9.20
2022-09-28T04:27:46.424Z,9.20
2022-09-28T04:28:46.466Z,9.18
2022-09-28T04:29:46.416Z,9.20
2022-09-28T04:30:46.375Z,9.15
2022-09-28T04:31:46.425Z,9.18
2022-09-28T04:32:46.370Z,9.21
2022-09-28T04:33:46.343Z,9.21
2022-09-28T04:34:46.357Z,9.21
2022-09-28T04:35:46.346Z,9.17
2022-09-28T04:36:46.319Z,9.17
2022-09-28T04:37:46.315Z,9.21
2022-09-28T04:38:53.103Z,9.20
2022-09-28T04:39:48.591Z,9.23
2022-09-28T04:40:46.296Z,9.23
2022-09-28T04:41:46.303Z,9.31
2022-09-28T04:42:46.276Z,9.28
2022-09-28T04:43:46.239Z,9.32
2022-09-28T04:44:46.243Z,9.32
2022-09-28T04:45:46.272Z,9.33
2022-09-28T04:46:46.204Z,9.38
2022-09-28T04:47:46.204Z,9.40
2022-09-28T04:48:46.241Z,9.39
2022-09-28T04:49:46.171Z,9.40
2022-09-28T04:50:46.237Z,9.47
2022-09-28T04:51:46.184Z,9.47
2022-09-28T04:52:46.146Z,9.53
2022-09-28T04:53:46.129Z,9.51
2022-09-28T04:54:46.130Z,9.54
2022-09-28T04:55:46.157Z,9.51
2022-09-28T04:56:46.119Z,9.60
2022-09-28T04:57:46.093Z,9.60
2022-09-28T04:58:50.308Z,9.65
2022-09-28T04:59:47.093Z,9.66
2022-09-28T05:00:46.111Z,9.71
2022-09-28T05:01:46.077Z,9.71
2022-09-28T05:02:46.040Z,9.72
2022-09-28T05:03:46.033Z,9.72
2022-09-28T05:04:46.017Z,9.69
2022-09-28T05:05:46.029Z,9.69
2022-09-28T05:06:45.989Z,9.69
2022-09-28T05:07:45.992Z,9.68
2022-09-28T05:08:45.979Z,9.72
2022-09-28T05:09:45.971Z,9.75
2022-09-28T05:10:45.969Z,9.76
2022-09-28T05:11:45.961Z,9.78
2022-09-28T05:12:45.931Z,9.79
2022-09-28T05:13:45.928Z,9.81
2022-09-28T05:14:45.930Z,9.86
2022-09-28T05:15:45.890Z,9.87
2022-09-28T05:16:45.951Z,9.87
2022-09-28T05:17:45.886Z,9.87
2022-09-28T05:18:45.861Z,9.89
2022-09-28T05:19:45.882Z,9.90
2022-09-28T05:20:45.850Z,9.93
2022-09-28T05:21:45.831Z,9.91
2022-09-28T05:22:45.832Z,9.96
2022-09-28T05:23:45.832Z,9.94
2022-09-28T05:24:45.802Z,9.96
2022-09-28T05:25:45.811Z,9.94
2022-09-28T05:26:45.783Z,9.94
2022-09-28T05:27:45.775Z,9.91
2022-09-28T05:28:45.766Z,9.91
2022-09-28T05:29:45.773Z,9.91
2022-09-28T05:30:45.743Z,9.90
2022-09-28T05:31:45.763Z,9.89
2022-09-28T05:32:45.714Z,9.89
2022-09-28T05:33:45.715Z,9.87
2022-09-28T05:34:45.724Z,9.87
2022-09-28T05:35:48.746Z,9.90
2022-09-28T05:36:46.693Z,9.99
2022-09-28T05:37:45.668Z,10.15
2022-09-28T05:38:45.697Z,10.11
2022-09-28T05:39:45.681Z,10.08
2022-09-28T05:40:45.713Z,10.05
2022-09-28T05:41:45.616Z,10.07
2022-09-28T05:42:45.614Z,10.04
2022-09-28T05:43:45.644Z,10.08
2022-09-28T05:44:45.605Z,10.05
2022-09-28T05:45:45.669Z,10.04
2022-09-28T05:46:45.571Z,10.04
2022-09-28T05:47:45.554Z,10.05
2022-09-28T05:48:45.586Z,10.04
2022-09-28T05:49:45.552Z,10.02
2022-09-28T05:50:45.516Z,10.07
2022-09-28T05:51:45.516Z,10.07
2022-09-28T05:52:45.543Z,10.08
2022-09-28T05:53:45.519Z,10.07
2022-09-28T05:54:45.486Z,10.09
2022-09-28T05:55:45.476Z,10.11
2022-09-28T05:56:45.478Z,10.09
2022-09-28T05:57:45.475Z,10.09
2022-09-28T05:58:45.437Z,10.14
2022-09-28T05:59:45.431Z,10.14
2022-09-28T06:00:45.469Z,10.17
2022-09-28T06:01:45.417Z,10.17
2022-09-28T06:02:45.474Z,10.22
2022-09-28T06:03:45.396Z,10.20
2022-09-28T06:04:45.398Z,10.25
2022-09-28T06:05:45.364Z,10.30
2022-09-28T06:06:45.379Z,10.36
2022-09-28T06:07:45.362Z,10.38
2022-09-28T06:08:45.330Z,10.41
2022-09-28T06:09:45.335Z,10.47
2022-09-28T06:10:45.341Z,10.55
2022-09-28T06:11:45.318Z,10.60
2022-09-28T06:12:45.279Z,10.67
2022-09-28T06:13:45.270Z,10.78
2022-09-28T06:14:45.331Z,10.89
2022-09-28T06:15:45.264Z,11.00
2022-09-28T06:16:45.304Z,11.06
2022-09-28T06:17:45.252Z,11.15
2022-09-28T06:18:45.222Z,11.14
2022-09-28T06:19:45.211Z,11.27
2022-09-28T06:20:45.200Z,11.32
2022-09-28T06:21:45.201Z,11.40
2022-09-28T06:22:45.213Z,11.44
2022-09-28T06:23:49.220Z,11.44
2022-09-28T06:24:45.160Z,11.44
2022-09-28T06:25:45.152Z,11.37
2022-09-28T06:26:45.146Z,11.32
2022-09-28T06:27:45.161Z,11.33
2022-09-28T06:28:45.128Z,11.32
2022-09-28T06:29:45.125Z,11.35
2022-09-28T06:30:45.170Z,11.28
2022-09-28T06:31:45.098Z,11.29
2022-09-28T06:32:45.093Z,11.33
2022-09-28T06:33:45.204Z,11.36
2022-09-28T06:34:45.096Z,11.37
2022-09-28T06:35:45.043Z,11.42
2022-09-28T06:36:45.066Z,11.49
2022-09-28T06:37:45.040Z,11.47
2022-09-28T06:38:45.025Z,11.51
2022-09-28T06:39:45.024Z,11.51
2022-09-28T06:40:45.081Z,11.55
2022-09-28T06:41:44.987Z,11.57
2022-09-28T06:42:44.976Z,11.61
2022-09-28T06:43:44.956Z,11.60
2022-09-28T06:44:44.959Z,11.55
2022-09-28T06:45:45.013Z,11.61
2022-09-28T06:46:44.949Z,11.60
2022-09-28T06:47:44.916Z,11.57
2022-09-28T06:48:44.908Z,11.51
2022-09-28T06:49:44.886Z,11.47
2022-09-28T06:50:44.904Z,11.49
2022-09-28T06:51:44.930Z,11.47
2022-09-28T06:52:44.857Z,11.54
2022-09-28T06:53:44.855Z,11.58
2022-09-28T06:54:44.857Z,11.55
2022-09-28T06:55:44.888Z,11.60
2022-09-28T06:56:44.828Z,11.54
2022-09-28T06:57:45.109Z,11.55
2022-09-28T06:58:44.798Z,11.54
2022-09-28T06:59:44.796Z,11.54
2022-09-28T07:00:44.856Z,11.54
2022-09-28T07:01:44.878Z,11.44
2022-09-28T07:02:44.799Z,11.43
2022-09-28T07:03:44.770Z,11.40
2022-09-28T07:04:44.734Z,11.37
2022-09-28T07:05:44.722Z,11.33
2022-09-28T07:06:44.745Z,11.29
2022-09-28T07:07:44.700Z,11.32
2022-09-28T07:08:49.891Z,11.35
2022-09-28T07:09:50.304Z,11.42
2022-09-28T07:10:45.687Z,11.47
2022-09-28T07:11:44.794Z,11.55
2022-09-28T07:12:44.728Z,11.60
2022-09-28T07:13:51.920Z,11.64
2022-09-28T07:14:48.058Z,11.70
2022-09-28T07:15:44.883Z,11.78
2022-09-28T07:17:08.770Z,11.78
2022-09-28T07:17:57.723Z,11.83
2022-09-28T07:18:45.582Z,11.90
2022-09-28T07:19:44.598Z,12.01
2022-09-28T07:20:53.444Z,12.09
2022-09-28T07:21:56.720Z,12.12
2022-09-28T07:22:45.674Z,12.19
2022-09-28T07:23:52.772Z,12.17
2022-09-28T07:24:45.537Z,12.23
2022-09-28T07:25:44.584Z,12.31
2022-09-28T07:26:44.495Z,12.35
2022-09-28T07:27:44.519Z,12.41
2022-09-28T07:28:44.465Z,12.45
2022-09-28T07:29:44.464Z,12.46
2022-09-28T07:30:44.623Z,12.32
2022-09-28T07:31:44.444Z,12.16
2022-09-28T07:32:44.440Z,12.13
2022-09-28T07:33:44.470Z,12.04
2022-09-28T07:34:44.422Z,12.04
2022-09-28T07:35:44.406Z,12.04
2022-09-28T07:36:44.384Z,12.01
2022-09-28T07:37:44.373Z,11.99
2022-09-28T07:38:44.377Z,12.13
2022-09-28T07:39:44.356Z,12.20
2022-09-28T07:40:48.270Z,12.24
2022-09-28T07:41:44.347Z,12.27
2022-09-28T07:42:44.325Z,12.32
2022-09-28T07:43:44.631Z,12.32
2022-09-28T07:44:44.311Z,12.32
2022-09-28T07:45:44.351Z,12.35
2022-09-28T07:46:44.318Z,12.46
2022-09-28T07:47:44.270Z,12.52
2022-09-28T07:48:44.259Z,12.49
2022-09-28T07:49:44.250Z,12.53
2022-09-28T07:50:44.279Z,12.60
2022-09-28T07:51:44.227Z,12.65
2022-09-28T07:52:44.209Z,12.78
2022-09-28T07:53:44.219Z,12.83
2022-09-28T07:54:44.204Z,12.92
2022-09-28T07:55:44.197Z,13.03
2022-09-28T07:56:44.170Z,13.07
2022-09-28T07:57:44.178Z,13.12
2022-09-28T07:58:44.166Z,13.14
2022-09-28T07:59:44.150Z,13.04
2022-09-28T08:00:44.139Z,13.04
2022-09-28T08:01:44.189Z,12.97
2022-09-28T08:02:44.193Z,13.00
2022-09-28T08:03:44.114Z,12.93
2022-09-28T08:04:44.114Z,12.95
2022-09-28T08:05:44.083Z,13.00
2022-09-28T08:06:44.062Z,12.96
2022-09-28T08:07:44.082Z,13.01
2022-09-28T08:08:44.041Z,12.97
2022-09-28T08:09:44.054Z,12.97
2022-09-28T08:10:46.978Z,12.97
2022-09-28T08:11:44.690Z,13.04
2022-09-28T08:12:43.999Z,13.01
2022-09-28T08:13:44.005Z,13.05
2022-09-28T08:14:43.976Z,13.05
2022-09-28T08:15:43.975Z,13.05
2022-09-28T08:16:43.967Z,13.08
2022-09-28T08:17:43.949Z,13.08
2022-09-28T08:18:43.959Z,13.14
2022-09-28T08:19:43.948Z,13.11
2022-09-28T08:20:46.942Z,13.05
2022-09-28T08:21:43.897Z,13.08
2022-09-28T08:22:43.894Z,13.05
2022-09-28T08:23:43.904Z,13.01
2022-09-28T08:24:43.881Z,13.00
2022-09-28T08:25:43.857Z,13.01
2022-09-28T08:26:43.837Z,13.00
2022-09-28T08:27:43.837Z,12.95
2022-09-28T08:28:43.847Z,12.95
2022-09-28T08:29:43.827Z,13.00
2022-09-28T08:30:43.874Z,12.92
2022-09-28T08:31:43.897Z,12.89
2022-09-28T08:32:43.951Z,12.79
2022-09-28T08:33:44.030Z,12.85
2022-09-28T08:34:43.767Z,12.83
2022-09-28T08:35:43.762Z,12.78
2022-09-28T08:36:43.769Z,12.86
2022-09-28T08:37:47.279Z,12.87
2022-09-28T08:38:44.830Z,12.89
2022-09-28T08:39:43.716Z,12.86
2022-09-28T08:40:43.843Z,12.90
2022-09-28T08:41:43.716Z,12.90
2022-09-28T08:42:43.678Z,12.92
2022-09-28T08:43:43.690Z,12.96
2022-09-28T08:45:43.708Z,13.07
2022-09-28T08:46:43.660Z,13.05
2022-09-28T08:47:43.641Z,13.11
2022-09-28T08:48:48.170Z,13.17
2022-09-28T08:49:45.645Z,13.12
2022-09-28T08:50:43.593Z,13.12
2022-09-28T08:51:43.581Z,13.23
2022-09-28T08:52:43.568Z,13.28
2022-09-28T08:53:43.582Z,13.39
2022-09-28T08:54:43.541Z,13.46
2022-09-28T08:55:43.552Z,13.49
2022-09-28T08:56:43.629Z,13.48
2022-09-28T08:57:43.584Z,13.51
2022-09-28T08:58:43.548Z,13.54
2022-09-28T08:59:43.495Z,13.55
2022-09-28T09:00:43.515Z,13.54
2022-09-28T09:01:43.536Z,13.55
2022-09-28T09:02:43.507Z,13.64
2022-09-28T09:03:43.470Z,13.71
2022-09-28T09:04:43.465Z,13.81
2022-09-28T09:05:43.477Z,13.91
2022-09-28T09:06:43.406Z,14.00
2022-09-28T09:07:43.418Z,14.07
2022-09-28T09:08:43.486Z,14.12
2022-09-28T09:09:43.470Z,14.17
2022-09-28T09:10:43.396Z,14.07
2022-09-28T09:11:43.417Z,14.20
2022-09-28T09:12:43.410Z,14.17
2022-09-28T09:13:43.349Z,14.09
2022-09-28T09:14:43.340Z,14.09
2022-09-28T09:15:43.362Z,14.07
2022-09-28T09:16:43.390Z,14.06
2022-09-28T09:17:43.309Z,14.17
2022-09-28T09:18:43.279Z,14.22
2022-09-28T09:19:43.312Z,14.22
2022-09-28T09:20:43.351Z,14.27
2022-09-28T09:21:43.272Z,14.28
2022-09-28T09:22:43.288Z,14.29
2022-09-28T09:23:43.240Z,14.36
2022-09-28T09:24:43.236Z,14.29
2022-09-28T09:25:43.234Z,14.35
2022-09-28T09:26:43.220Z,14.42
2022-09-28T09:27:43.240Z,14.47
2022-09-28T09:28:43.433Z,14.52
2022-09-28T09:29:43.165Z,14.54
2022-09-28T09:30:43.233Z,14.54
2022-09-28T09:31:43.151Z,14.51
2022-09-28T09:32:43.140Z,14.51
2022-09-28T09:33:43.161Z,14.64
2022-09-28T09:34:43.112Z,14.72
2022-09-28T09:35:43.118Z,14.80
2022-09-28T09:36:43.093Z,15.01
2022-09-28T09:37:43.112Z,15.14
2022-09-28T09:38:43.144Z,15.34
2022-09-28T09:39:43.064Z,15.64
2022-09-28T09:40:43.134Z,15.93
2022-09-28T09:41:43.049Z,16.05
2022-09-28T09:42:43.043Z,16.30
2022-09-28T09:43:43.054Z,16.45
2022-09-28T09:44:43.024Z,16.46
2022-09-28T09:45:43.079Z,16.60
2022-09-28T09:46:42.986Z,16.73
2022-09-28T09:47:42.992Z,16.91
2022-09-28T09:48:43.018Z,16.97
2022-09-28T09:49:42.954Z,17.01
2022-09-28T09:50:42.993Z,17.11
2022-09-28T09:51:42.963Z,17.04
2022-09-28T09:52:44.361Z,17.01
2022-09-28T09:53:42.896Z,16.91
2022-09-28T09:54:42.915Z,16.78
2022-09-28T09:55:42.897Z,16.52
2022-09-28T09:56:42.884Z,16.25
2022-09-28T09:57:42.877Z,16.33
2022-09-28T09:58:42.854Z,16.58
2022-09-28T09:59:42.848Z,16.83
2022-09-28T10:00:42.858Z,16.97
2022-09-28T10:01:42.933Z,17.08
2022-09-28T10:02:42.933Z,17.25
2022-09-28T10:03:42.806Z,17.41
2022-09-28T10:04:42.802Z,17.48
2022-09-28T10:05:42.789Z,17.55
2022-09-28T10:06:42.774Z,17.64
2022-09-28T10:07:43.677Z,17.49
2022-09-28T10:08:42.761Z,17.48
2022-09-28T10:09:42.740Z,17.56
2022-09-28T10:10:42.733Z,17.34
2022-09-28T10:11:42.741Z,17.21
2022-09-28T10:12:42.741Z,16.94
2022-09-28T10:13:42.695Z,17.18
2022-09-28T10:14:42.681Z,17.07
2022-09-28T10:15:42.687Z,16.83
2022-09-28T10:16:42.746Z,16.73
2022-09-28T10:17:42.708Z,16.81
2022-09-28T10:18:42.646Z,17.08
2022-09-28T10:19:42.725Z,17.22
2022-09-28T10:20:42.949Z,17.41
2022-09-28T10:21:44.784Z,17.15
2022-09-28T10:22:42.954Z,17.12
2022-09-28T10:23:43.435Z,17.14
2022-09-28T10:24:42.570Z,16.93
2022-09-28T10:25:42.574Z,16.88
2022-09-28T10:26:42.632Z,16.82
2022-09-28T10:27:44.517Z,16.75
2022-09-28T10:28:42.866Z,16.66
2022-09-28T10:29:42.590Z,16.48
2022-09-28T10:30:42.938Z,16.28
2022-09-28T10:31:42.806Z,16.25
2022-09-28T10:32:42.522Z,16.20
2022-09-28T10:33:42.574Z,16.34
2022-09-28T10:34:42.489Z,16.35
2022-09-28T10:35:42.511Z,16.33
2022-09-28T10:36:42.488Z,16.30
2022-09-28T10:37:42.499Z,16.39
2022-09-28T10:38:42.431Z,16.48
2022-09-28T10:39:42.426Z,16.25
2022-09-28T10:40:42.499Z,16.20
2022-09-28T10:41:42.428Z,16.12
2022-09-28T10:42:42.411Z,16.20
2022-09-28T10:43:45.432Z,16.15
2022-09-28T10:44:43.393Z,16.30
2022-09-28T10:45:42.415Z,16.50
2022-09-28T10:46:42.361Z,16.56
2022-09-28T10:47:42.355Z,16.67
2022-09-28T10:48:42.339Z,16.82
2022-09-28T10:49:46.742Z,16.88
2022-09-28T10:50:42.321Z,16.97
2022-09-28T10:51:42.362Z,16.91
2022-09-28T10:52:42.293Z,16.76
2022-09-28T10:53:42.295Z,16.38
2022-09-28T10:54:42.292Z,16.43
2022-09-28T10:55:42.246Z,16.50
2022-09-28T10:56:42.271Z,16.61
2022-09-28T10:57:42.231Z,16.70
2022-09-28T10:58:42.230Z,16.71
2022-09-28T10:59:42.222Z,16.66
2022-09-28T11:00:42.193Z,16.42
2022-09-28T11:01:42.227Z,16.45
2022-09-28T11:02:42.211Z,16.53
2022-09-28T11:03:42.156Z,16.57
2022-09-28T11:04:42.151Z,16.53
2022-09-28T11:05:42.155Z,16.64
2022-09-28T11:06:42.175Z,16.66
2022-09-28T11:07:42.122Z,16.57
2022-09-28T11:08:42.163Z,16.58
2022-09-28T11:09:42.858Z,16.61
2022-09-28T11:10:42.428Z,16.61
2022-09-28T11:11:43.267Z,16.39
2022-09-28T11:12:42.169Z,16.08
2022-09-28T11:13:43.142Z,15.87
2022-09-28T11:14:42.951Z,15.68
2022-09-28T11:15:42.051Z,15.60
2022-09-28T11:16:42.141Z,15.60
2022-09-28T11:17:42.029Z,15.62
2022-09-28T11:18:42.006Z,15.51
2022-09-28T11:19:42.681Z,15.31
2022-09-28T11:20:44.662Z,15.19
2022-09-28T11:21:42.571Z,15.03
2022-09-28T11:22:42.027Z,14.78
2022-09-28T11:23:42.022Z,14.61
2022-09-28T11:24:41.953Z,14.55
2022-09-28T11:25:41.995Z,14.60
2022-09-28T11:26:41.953Z,14.60
2022-09-28T11:27:41.907Z,14.60
2022-09-28T11:28:41.971Z,14.72
2022-09-28T11:29:42.861Z,14.72
2022-09-28T11:30:44.718Z,14.61
2022-09-28T11:31:41.984Z,14.47
2022-09-28T11:32:41.883Z,14.42
2022-09-28T11:33:41.881Z,14.40
2022-09-28T11:34:58.747Z,14.50
2022-09-28T11:35:42.834Z,14.60
2022-09-28T11:36:42.741Z,14.65
2022-09-28T11:37:41.895Z,14.77
2022-09-28T11:38:41.977Z,14.73
2022-09-28T11:39:41.815Z,14.72
2022-09-28T11:40:41.823Z,14.78
2022-09-28T11:41:41.749Z,14.81
2022-09-28T11:42:41.861Z,14.96
2022-09-28T11:43:41.791Z,15.03
2022-09-28T11:44:42.068Z,15.13
2022-09-28T11:45:41.833Z,15.10
2022-09-28T11:46:42.655Z,15.20
2022-09-28T11:47:43.719Z,15.07
2022-09-28T11:48:43.685Z,14.98
2022-09-28T11:49:42.428Z,15.02
2022-09-28T11:50:42.040Z,14.96
2022-09-28T11:51:42.540Z,14.98
2022-09-28T11:52:41.671Z,14.98
2022-09-28T11:53:43.517Z,14.89
2022-09-28T11:54:46.009Z,14.65
2022-09-28T11:55:41.610Z,14.46
2022-09-28T11:56:41.600Z,14.46
2022-09-28T11:57:41.639Z,14.51
2022-09-28T11:58:41.971Z,14.50
2022-09-28T11:59:41.569Z,14.36
2022-09-28T12:00:41.569Z,14.37
2022-09-28T12:01:41.631Z,14.24
2022-09-28T12:02:42.050Z,14.06
2022-09-28T12:03:41.631Z,13.99
2022-09-28T12:04:41.524Z,13.95
2022-09-28T12:05:41.534Z,13.92
2022-09-28T12:06:41.522Z,13.95
2022-09-28T12:07:41.773Z,13.88
2022-09-28T12:08:41.493Z,13.84
2022-09-28T12:09:41.451Z,13.77
2022-09-28T12:10:45.421Z,13.75
2022-09-28T12:11:41.458Z,13.87
2022-09-28T12:12:41.424Z,13.88
2022-09-28T12:13:41.444Z,13.85
2022-09-28T12:14:41.413Z,13.89
2022-09-28T12:16:07.494Z,13.84
2022-09-28T12:17:42.566Z,13.87
2022-09-28T12:18:41.360Z,13.79
2022-09-28T12:19:41.350Z,13.66
2022-09-28T12:20:41.390Z,13.63
2022-09-28T12:21:41.325Z,13.70
2022-09-28T12:22:41.361Z,13.81
2022-09-28T12:23:41.306Z,13.92
2022-09-28T12:24:41.315Z,14.03
2022-09-28T12:25:41.266Z,14.03
2022-09-28T12:26:41.307Z,13.99
2022-09-28T12:27:41.258Z,13.82
2022-09-28T12:28:41.274Z,13.82
2022-09-28T12:29:41.266Z,13.82
2022-09-28T12:30:41.584Z,13.62
2022-09-28T12:31:41.229Z,13.51
2022-09-28T12:32:41.231Z,13.32
2022-09-28T12:33:41.200Z,13.10
2022-09-28T12:34:41.219Z,13.07
2022-09-28T12:35:41.185Z,13.19
2022-09-28T12:36:41.211Z,13.29
2022-09-28T12:37:41.141Z,13.49
2022-09-28T12:38:41.150Z,13.67
2022-09-28T12:39:56.912Z,13.60
2022-09-28T12:40:42.194Z,13.69
2022-09-28T12:41:41.111Z,13.71
2022-09-28T12:42:41.110Z,13.82
2022-09-28T12:43:41.086Z,13.92
2022-09-28T12:44:41.125Z,13.95
2022-09-28T12:46:06.696Z,13.97
2022-09-28T12:46:42.112Z,14.03
2022-09-28T12:47:41.051Z,14.07
2022-09-28T12:48:41.035Z,14.07
2022-09-28T12:50:36.292Z,14.06
2022-09-28T12:50:49.930Z,14.07
2022-09-28T12:51:42.003Z,14.18
2022-09-28T12:53:40.995Z,14.24
2022-09-28T12:54:40.972Z,14.29
2022-09-28T12:55:40.993Z,14.20
2022-09-28T12:56:40.944Z,14.12
2022-09-28T12:57:40.991Z,14.04
2022-09-28T12:58:40.940Z,14.03
2022-09-28T12:59:40.917Z,14.06
2022-09-28T13:00:40.916Z,14.04